Time;durP1;ratioP1;P1;durP2;ratioP2;P2;SDS_P1;SDS_P2;PMS_P1;PMS_P2;Temp;Humidity;BMP_temperature;BMP_pressure;BME280_temperature;BME280_humidity;BME280_pressure;Samples;Min_cycle;Max_cycle;Signal;HPM_P1;HPM_P2
2022/11/23 00:00:44;;;;;;;34.10;19.02;;;7.30;99.90;;;;;;5015111;28;20044;-78
2022/11/23 00:03:16;;;;;;;35.88;19.92;;;7.30;99.90;;;;;;5039161;28;20049;-84
2022/11/23 00:05:41;;;;;;;27.92;18.15;;;7.30;99.90;;;;;;5044755;28;20713;-78
2022/11/23 00:08:07;;;;;;;35.05;18.40;;;7.30;99.90;;;;;;5039776;28;20042;-77
2022/11/23 00:10:32;;;;;;;33.45;18.88;;;7.30;99.90;;;;;;5047435;28;20379;-78
2022/11/23 00:12:58;;;;;;;35.05;18.25;;;7.30;99.90;;;;;;5045532;28;20406;-78
2022/11/23 00:15:24;;;;;;;30.17;18.40;;;7.30;99.90;;;;;;5054175;28;20057;-78
2022/11/23 00:17:49;;;;;;;38.50;20.10;;;7.40;99.90;;;;;;5038046;28;20128;-80
2022/11/23 00:20:15;;;;;;;31.42;19.25;;;7.40;99.90;;;;;;5045322;28;20037;-79
2022/11/23 00:22:41;;;;;;;33.40;20.05;;;7.40;99.90;;;;;;5045646;28;20540;-80
2022/11/23 00:25:07;;;;;;;32.55;18.70;;;7.40;99.90;;;;;;5024115;28;20048;-78
2022/11/23 00:27:33;;;;;;;35.63;19.55;;;7.40;99.90;;;;;;5051237;28;20057;-78
2022/11/23 00:29:58;;;;;;;33.05;18.70;;;7.40;99.90;;;;;;5053054;28;20045;-79
2022/11/23 00:32:24;;;;;;;31.42;18.92;;;7.40;99.90;;;;;;5035777;28;20057;-78
2022/11/23 00:34:49;;;;;;;27.80;18.98;;;7.40;99.90;;;;;;5021067;28;20053;-78
2022/11/23 00:37:15;;;;;;;30.27;20.13;;;7.50;99.90;;;;;;5051578;28;20247;-85
2022/11/23 00:39:41;;;;;;;32.75;18.75;;;7.50;99.90;;;;;;5048288;28;20099;-77
2022/11/23 00:42:06;;;;;;;30.08;20.02;;;7.50;99.90;;;;;;5036234;28;20061;-78
2022/11/23 00:44:32;;;;;;;31.05;19.15;;;7.50;99.90;;;;;;5036294;28;20055;-78
2022/11/23 00:46:58;;;;;;;30.23;18.30;;;7.50;99.90;;;;;;5062056;28;20133;-77
2022/11/23 00:49:23;;;;;;;32.08;19.17;;;7.50;99.90;;;;;;5046167;28;20136;-77
2022/11/23 00:51:49;;;;;;;30.38;18.20;;;7.50;99.90;;;;;;5042976;28;20085;-78
2022/11/23 00:54:15;;;;;;;32.85;18.38;;;7.50;99.90;;;;;;5038470;28;20051;-78
2022/11/23 00:56:40;;;;;;;33.35;18.55;;;7.50;99.90;;;;;;5059401;28;20045;-78
2022/11/23 00:59:06;;;;;;;32.58;18.88;;;7.60;99.90;;;;;;5055090;28;20124;-78
2022/11/23 01:01:35;;;;;;;32.78;18.48;;;7.60;99.90;;;;;;5036655;28;20056;-78
2022/11/23 01:04:03;;;;;;;28.13;18.50;;;7.60;99.90;;;;;;5060819;28;20549;-78
2022/11/23 01:06:31;;;;;;;33.17;18.50;;;7.60;99.90;;;;;;5050167;28;20037;-78
2022/11/23 01:09:03;;;;;;;32.42;18.50;;;7.60;99.90;;;;;;5037947;28;20068;-77
2022/11/23 01:11:31;;;;;;;32.58;17.70;;;7.60;99.90;;;;;;5059164;28;20450;-78
2022/11/23 01:13:57;;;;;;;31.10;19.10;;;7.60;99.90;;;;;;5064089;28;20071;-77
2022/11/23 01:16:27;;;;;;;33.78;19.33;;;7.60;99.90;;;;;;5052386;28;20055;-78
2022/11/23 01:18:59;;;;;;;35.30;19.55;;;7.60;99.90;;;;;;5052365;28;20040;-78
2022/11/23 01:21:27;;;;;;;31.52;19.48;;;7.60;99.90;;;;;;5062021;28;20414;-77
2022/11/23 01:23:52;;;;;;;28.20;18.67;;;7.60;99.90;;;;;;5064180;28;20040;-77
2022/11/23 01:26:18;;;;;;;31.95;19.50;;;7.60;99.90;;;;;;5042519;28;20589;-77
2022/11/23 01:28:44;;;;;;;35.13;20.50;;;7.60;99.90;;;;;;5050299;28;20088;-78
2022/11/23 01:31:13;;;;;;;31.85;20.15;;;7.60;99.90;;;;;;5060885;28;20044;-77
2022/11/23 01:33:39;;;;;;;32.10;19.98;;;7.60;99.90;;;;;;5062877;28;20056;-77
2022/11/23 01:36:19;;;;;;;34.80;20.25;;;7.60;99.90;;;;;;5050687;28;20041;-81
2022/11/23 01:38:46;;;;;;;33.60;19.42;;;7.60;99.90;;;;;;5050022;28;20122;-79
2022/11/23 01:41:17;;;;;;;30.13;19.45;;;7.60;99.90;;;;;;5050612;28;20046;-77
2022/11/23 01:43:43;;;;;;;30.50;19.42;;;7.70;99.90;;;;;;5051573;28;20045;-77
2022/11/23 01:46:10;;;;;;;31.83;19.85;;;7.60;99.90;;;;;;5050824;28;20478;-83
2022/11/23 01:49:00;;;;;;;32.78;20.10;;;7.60;99.90;;;;;;5062648;28;20082;-79
2022/11/23 01:51:43;;;;;;;28.67;18.05;;;7.70;99.90;;;;;;5051302;28;20084;-85
2022/11/23 01:54:13;;;;;;;39.50;19.75;;;7.60;99.90;;;;;;5037873;28;20057;-78
2022/11/23 01:56:42;;;;;;;32.80;19.13;;;7.70;99.90;;;;;;5042519;28;20057;-79
2022/11/23 01:59:11;;;;;;;26.95;19.42;;;7.60;99.90;;;;;;5045364;28;20376;-77
2022/11/23 02:01:37;;;;;;;31.95;18.58;;;7.70;99.90;;;;;;5050028;28;20053;-77
2022/11/23 02:04:06;;;;;;;31.80;18.38;;;7.60;99.90;;;;;;5050197;28;20041;-79
2022/11/23 02:06:32;;;;;;;29.48;17.83;;;7.60;99.90;;;;;;5048824;28;20060;-76
2022/11/23 02:08:59;;;;;;;29.02;18.52;;;7.60;99.90;;;;;;5032568;28;20048;-76
2022/11/23 02:11:25;;;;;;;28.45;18.85;;;7.70;99.90;;;;;;5052356;28;20387;-78
2022/11/23 02:13:51;;;;;;;27.75;17.95;;;7.70;99.90;;;;;;5052112;28;20051;-77
2022/11/23 02:16:17;;;;;;;32.38;19.05;;;7.70;99.90;;;;;;5052112;28;20044;-77
2022/11/23 02:18:46;;;;;;;27.63;17.10;;;7.70;99.90;;;;;;5052135;28;20045;-77
2022/11/23 02:21:12;;;;;;;30.70;17.48;;;7.70;99.90;;;;;;5052112;28;20048;-80
2022/11/23 02:23:37;;;;;;;27.60;17.40;;;7.70;99.90;;;;;;5047655;28;20049;-77
2022/11/23 02:26:05;;;;;;;31.85;18.48;;;7.70;99.90;;;;;;5026625;28;20048;-76
2022/11/23 02:28:54;;;;;;;32.65;18.85;;;7.70;99.90;;;;;;5045684;28;20574;-85
2022/11/23 02:31:20;;;;;;;29.95;18.15;;;7.70;99.90;;;;;;5047639;28;20052;-80
2022/11/23 02:33:46;;;;;;;35.85;19.33;;;7.70;99.90;;;;;;5050808;28;20068;-78
2022/11/23 02:36:44;;;;;;;36.08;19.00;;;7.70;99.90;;;;;;5047917;28;20041;-77
2022/11/23 02:39:23;;;;;;;34.45;18.67;;;7.70;99.90;;;;;;5044154;28;20056;-77
2022/11/23 02:41:51;;;;;;;37.97;18.58;;;7.70;99.90;;;;;;5047258;28;20044;-76
2022/11/23 02:44:26;;;;;;;39.05;18.50;;;7.70;99.90;;;;;;5048993;28;20086;-76
2022/11/23 02:46:52;;;;;;;36.78;19.23;;;7.70;99.90;;;;;;5049391;28;20055;-76
2022/11/23 02:49:18;;;;;;;32.78;18.38;;;7.70;99.90;;;;;;5052313;28;20041;-76
2022/11/23 02:51:44;;;;;;;30.13;17.88;;;7.70;99.90;;;;;;5046452;28;20103;-77
2022/11/23 02:54:10;;;;;;;33.80;18.48;;;7.70;99.90;;;;;;5057203;28;20056;-79
2022/11/23 02:56:36;;;;;;;37.78;18.48;;;7.70;99.90;;;;;;5032132;28;20044;-81
2022/11/23 02:59:01;;;;;;;34.42;18.52;;;7.70;99.90;;;;;;5047347;28;20053;-77
2022/11/23 03:01:28;;;;;;;35.88;18.75;;;7.70;99.90;;;;;;5049027;28;20083;-77
2022/11/23 03:03:53;;;;;;;39.15;19.40;;;7.80;99.90;;;;;;5032844;28;20210;-76
2022/11/23 03:06:19;;;;;;;39.67;18.73;;;7.70;99.90;;;;;;5014154;28;20053;-76
2022/11/23 03:08:44;;;;;;;36.58;18.23;;;7.70;99.90;;;;;;5045178;28;20106;-78
2022/11/23 03:11:10;;;;;;;36.90;18.23;;;7.70;99.90;;;;;;5031765;28;20071;-76
2022/11/23 03:13:36;;;;;;;41.00;18.38;;;7.70;99.90;;;;;;5046102;28;20053;-76
2022/11/23 03:16:01;;;;;;;38.05;18.92;;;7.70;99.90;;;;;;5042292;28;20112;-78
2022/11/23 03:18:28;;;;;;;42.65;19.23;;;7.80;99.90;;;;;;5029205;28;20041;-77
2022/11/23 03:20:54;;;;;;;44.85;19.27;;;7.80;99.90;;;;;;5046634;28;20056;-76
2022/11/23 03:23:20;;;;;;;39.97;19.75;;;7.70;99.90;;;;;;5049562;28;20055;-77
2022/11/23 03:25:54;;;;;;;43.20;18.98;;;7.70;99.90;;;;;;5053217;28;20698;-77
2022/11/23 03:28:20;;;;;;;46.08;20.25;;;7.70;99.90;;;;;;5042696;28;20053;-77
2022/11/23 03:30:45;;;;;;;40.90;19.25;;;7.70;99.90;;;;;;5048838;28;20052;-78
2022/11/23 03:33:11;;;;;;;44.38;20.42;;;7.70;99.90;;;;;;5047656;28;20044;-78
2022/11/23 03:35:37;;;;;;;44.28;18.90;;;7.70;99.90;;;;;;5034916;28;20124;-76
2022/11/23 03:38:03;;;;;;;40.38;19.15;;;7.70;99.90;;;;;;5037739;28;20045;-76
2022/11/23 03:40:28;;;;;;;47.35;20.63;;;7.70;99.90;;;;;;5048114;28;20493;-78
2022/11/23 03:42:54;;;;;;;49.20;20.38;;;7.70;99.90;;;;;;5052856;28;20053;-80
2022/11/23 03:45:20;;;;;;;46.72;20.67;;;7.70;99.90;;;;;;5042197;28;20041;-77
2022/11/23 03:47:45;;;;;;;50.35;21.08;;;7.80;99.90;;;;;;5042722;28;20053;-77
2022/11/23 03:50:11;;;;;;;43.88;19.10;;;7.70;99.90;;;;;;5020636;28;20057;-78
2022/11/23 03:52:37;;;;;;;51.53;21.08;;;7.80;99.90;;;;;;5037598;28;20044;-77
2022/11/23 03:55:03;;;;;;;53.88;21.90;;;7.70;99.90;;;;;;5056894;28;20049;-77
2022/11/23 03:57:29;;;;;;;49.72;20.88;;;7.70;99.90;;;;;;5052457;28;20067;-79
2022/11/23 03:59:54;;;;;;;49.30;21.58;;;7.80;99.90;;;;;;5056076;28;20053;-78
2022/11/23 04:02:20;;;;;;;52.15;21.95;;;7.80;99.90;;;;;;5048267;28;20044;-77
2022/11/23 04:04:45;;;;;;;52.55;19.77;;;7.70;99.90;;;;;;5049676;28;20049;-78
2022/11/23 04:07:11;;;;;;;55.40;22.33;;;7.70;99.90;;;;;;5047984;28;20045;-80
2022/11/23 04:09:37;;;;;;;55.33;21.77;;;7.70;99.90;;;;;;5032418;28;20526;-77
2022/11/23 04:12:03;;;;;;;68.20;23.80;;;7.80;99.90;;;;;;5046152;28;20343;-77
2022/11/23 04:14:28;;;;;;;52.15;22.05;;;7.70;99.90;;;;;;5047448;28;20380;-77
2022/11/23 04:16:54;;;;;;;67.03;22.45;;;7.80;99.90;;;;;;5044393;28;20052;-77
2022/11/23 04:19:20;;;;;;;59.03;24.13;;;7.70;99.90;;;;;;5031719;28;20436;-78
2022/11/23 04:21:46;;;;;;;59.25;23.23;;;7.70;99.90;;;;;;5045426;28;20445;-83
2022/11/23 04:24:11;;;;;;;64.28;23.77;;;7.80;99.90;;;;;;5051900;28;20041;-78
2022/11/23 04:26:38;;;;;;;58.13;22.63;;;7.90;99.90;;;;;;5046823;28;20414;-77
2022/11/23 04:29:04;;;;;;;64.65;24.20;;;7.70;99.90;;;;;;5045574;28;20061;-78
2022/11/23 04:31:29;;;;;;;60.35;23.58;;;7.70;99.90;;;;;;5045679;28;20072;-77
2022/11/23 04:33:56;;;;;;;66.57;25.02;;;7.70;99.90;;;;;;5038782;28;20049;-77
2022/11/23 04:36:21;;;;;;;76.18;26.23;;;7.70;99.90;;;;;;5046135;28;20055;-77
2022/11/23 04:38:47;;;;;;;56.97;24.75;;;7.60;99.90;;;;;;5046035;28;20419;-79
2022/11/23 04:41:13;;;;;;;60.40;24.63;;;7.60;99.90;;;;;;5032849;28;20048;-77
2022/11/23 04:43:38;;;;;;;69.82;24.42;;;7.70;99.90;;;;;;5047189;28;20080;-79
2022/11/23 04:46:04;;;;;;;60.08;24.52;;;7.60;99.90;;;;;;5033993;28;20517;-77
2022/11/23 04:48:30;;;;;;;64.65;24.65;;;7.60;99.90;;;;;;5043435;28;20044;-81
2022/11/23 04:50:57;;;;;;;71.93;26.05;;;7.70;99.90;;;;;;5031285;28;20048;-79
2022/11/23 04:53:23;;;;;;;79.30;26.65;;;7.60;99.90;;;;;;5046788;28;20051;-77
2022/11/23 04:55:48;;;;;;;65.18;26.35;;;7.60;99.90;;;;;;5052771;28;20045;-77
2022/11/23 04:58:14;;;;;;;72.20;26.52;;;7.70;99.90;;;;;;5042613;28;20049;-77
2022/11/23 05:00:39;;;;;;;67.80;25.08;;;7.70;99.90;;;;;;5024139;28;20052;-78
2022/11/23 05:03:05;;;;;;;68.05;25.92;;;7.70;99.90;;;;;;5027097;28;20049;-77
2022/11/23 05:05:31;;;;;;;80.05;27.77;;;7.70;99.90;;;;;;5034815;28;20079;-78
2022/11/23 05:07:57;;;;;;;66.18;25.35;;;7.80;99.90;;;;;;5047665;28;20075;-77
2022/11/23 05:10:24;;;;;;;66.13;25.65;;;7.80;99.90;;;;;;5052437;28;20518;-77
2022/11/23 05:12:49;;;;;;;58.30;24.27;;;7.70;99.90;;;;;;5053911;28;20060;-78
2022/11/23 05:15:15;;;;;;;61.55;25.27;;;7.70;99.90;;;;;;5053157;28;20126;-78
2022/11/23 05:17:41;;;;;;;65.55;25.83;;;7.70;99.90;;;;;;5034903;28;20140;-78
2022/11/23 05:20:07;;;;;;;59.22;24.70;;;7.60;99.90;;;;;;5041930;28;20410;-78
2022/11/23 05:22:33;;;;;;;62.83;25.48;;;7.70;99.90;;;;;;5047254;28;20458;-81
2022/11/23 05:24:59;;;;;;;72.80;26.38;;;7.70;99.90;;;;;;5038748;28;20087;-80
2022/11/23 05:27:24;;;;;;;67.10;24.98;;;7.70;99.90;;;;;;5050028;28;20092;-81
2022/11/23 05:29:50;;;;;;;68.72;26.10;;;7.70;99.90;;;;;;5045376;28;20048;-78
2022/11/23 05:32:16;;;;;;;71.72;25.70;;;7.80;99.90;;;;;;5031589;28;20107;-78
2022/11/23 05:34:41;;;;;;;65.85;24.88;;;7.80;99.90;;;;;;5032621;28;20102;-79
2022/11/23 05:37:07;;;;;;;63.67;24.92;;;7.80;99.90;;;;;;5034376;28;20076;-77
2022/11/23 05:39:33;;;;;;;58.25;25.08;;;7.80;99.90;;;;;;5032874;28;20124;-78
2022/11/23 05:41:58;;;;;;;55.60;24.15;;;7.70;99.90;;;;;;5049215;28;20087;-78
2022/11/23 05:44:24;;;;;;;54.38;22.13;;;7.70;99.90;;;;;;5051991;28;20484;-79
2022/11/23 05:46:50;;;;;;;54.97;23.83;;;7.70;99.90;;;;;;5034490;28;20037;-78
2022/11/23 05:49:15;;;;;;;51.63;22.65;;;7.60;99.90;;;;;;5052724;28;20041;-81
2022/11/23 05:51:41;;;;;;;50.40;22.17;;;7.60;99.90;;;;;;5050401;28;20474;-79
2022/11/23 05:54:07;;;;;;;51.60;22.92;;;7.60;99.90;;;;;;5051233;28;20444;-78
2022/11/23 05:56:32;;;;;;;47.45;22.13;;;7.50;99.90;;;;;;5051265;28;20060;-78
2022/11/23 05:58:58;;;;;;;51.47;21.77;;;7.50;99.90;;;;;;5047831;28;20049;-85
2022/11/23 06:01:24;;;;;;;51.47;21.27;;;7.50;99.90;;;;;;5050518;28;20064;-80
2022/11/23 06:03:50;;;;;;;55.00;21.50;;;7.50;99.90;;;;;;5049204;28;20094;-78
2022/11/23 06:06:16;;;;;;;51.42;21.10;;;7.50;99.90;;;;;;5047366;28;20476;-78
2022/11/23 06:08:41;;;;;;;49.75;20.55;;;7.50;99.90;;;;;;5013980;28;20045;-78
2022/11/23 06:11:07;;;;;;;51.97;20.70;;;7.40;99.90;;;;;;5047853;28;20041;-77
2022/11/23 06:13:33;;;;;;;46.05;20.15;;;7.40;99.90;;;;;;5050655;28;20079;-78
2022/11/23 06:15:58;;;;;;;55.00;20.60;;;7.30;99.90;;;;;;5049573;28;20080;-77
2022/11/23 06:18:24;;;;;;;46.17;18.80;;;7.30;99.90;;;;;;5045584;28;20056;-79
2022/11/23 06:20:50;;;;;;;42.58;19.55;;;7.30;99.90;;;;;;5035256;28;20045;-79
2022/11/23 06:23:15;;;;;;;56.13;21.48;;;7.20;99.90;;;;;;5045543;28;20043;-80
2022/11/23 06:25:41;;;;;;;50.80;20.38;;;7.20;99.90;;;;;;5049549;28;20055;-78
2022/11/23 06:28:07;;;;;;;52.83;21.38;;;7.20;99.90;;;;;;5028151;28;20135;-78
2022/11/23 06:30:33;;;;;;;57.75;20.27;;;7.20;99.90;;;;;;5048868;28;20060;-78
2022/11/23 06:33:02;;;;;;;41.70;18.85;;;7.30;99.90;;;;;;5051807;28;20051;-78
2022/11/23 06:35:27;;;;;;;49.63;19.65;;;7.30;99.90;;;;;;5047008;28;20124;-78
2022/11/23 06:37:53;;;;;;;43.25;19.15;;;7.20;99.90;;;;;;5033320;28;20550;-78
2022/11/23 06:40:19;;;;;;;43.97;19.00;;;7.30;99.90;;;;;;5028034;28;20080;-78
2022/11/23 06:42:46;;;;;;;46.22;19.05;;;7.20;99.90;;;;;;5050440;28;20037;-78
2022/11/23 06:45:12;;;;;;;39.42;18.35;;;7.20;99.90;;;;;;5054224;28;20041;-82
2022/11/23 06:47:38;;;;;;;45.97;17.92;;;7.20;99.90;;;;;;5019412;28;20040;-79
2022/11/23 06:50:04;;;;;;;37.42;16.40;;;7.20;99.90;;;;;;5066207;28;20495;-77
2022/11/23 06:52:30;;;;;;;37.42;17.67;;;7.20;99.90;;;;;;5050008;28;20124;-77
2022/11/23 06:54:56;;;;;;;39.97;16.27;;;7.20;99.90;;;;;;5050428;28;20557;-78
2022/11/23 06:57:21;;;;;;;38.58;16.33;;;7.20;99.90;;;;;;5030242;28;20498;-84
2022/11/23 06:59:47;;;;;;;45.95;16.45;;;7.30;99.90;;;;;;5024331;28;20046;-81
2022/11/23 07:02:13;;;;;;;35.70;14.85;;;7.30;99.90;;;;;;5031747;28;20073;-77
2022/11/23 07:04:39;;;;;;;30.90;14.60;;;7.10;99.90;;;;;;5048262;28;20126;-79
2022/11/23 07:07:07;;;;;;;32.75;14.65;;;7.30;99.90;;;;;;5048648;28;20463;-82
2022/11/23 07:09:33;;;;;;;30.48;13.50;;;7.20;99.90;;;;;;5059421;28;20055;-78
2022/11/23 07:11:59;;;;;;;33.28;13.85;;;7.30;99.90;;;;;;5035093;28;20045;-78
2022/11/23 07:14:24;;;;;;;29.42;14.23;;;7.30;99.90;;;;;;5061470;28;20557;-78
2022/11/23 07:16:50;;;;;;;32.65;14.10;;;7.30;99.90;;;;;;5063193;28;20582;-77
2022/11/23 07:19:16;;;;;;;32.72;13.20;;;7.40;99.90;;;;;;5046355;28;20488;-78
2022/11/23 07:21:41;;;;;;;39.72;13.13;;;7.40;99.90;;;;;;5048576;28;20076;-78
2022/11/23 07:24:07;;;;;;;27.92;11.73;;;7.40;99.90;;;;;;5036524;28;20129;-78
2022/11/23 07:26:33;;;;;;;35.95;13.15;;;7.40;99.90;;;;;;5055043;28;20163;-78
2022/11/23 07:28:58;;;;;;;33.78;12.45;;;7.40;99.90;;;;;;5047447;28;20057;-79
2022/11/23 07:31:24;;;;;;;28.63;11.43;;;7.40;99.90;;;;;;5046714;28;20060;-79
2022/11/23 07:33:50;;;;;;;28.50;12.48;;;7.40;99.90;;;;;;5014767;28;20128;-79
2022/11/23 07:36:16;;;;;;;31.27;11.82;;;7.40;99.90;;;;;;5015060;28;20081;-81
2022/11/23 07:38:41;;;;;;;26.45;10.13;;;7.40;99.90;;;;;;5050778;28;20056;-79
2022/11/23 07:41:07;;;;;;;27.02;10.38;;;7.40;99.90;;;;;;5053219;28;20044;-79
2022/11/23 07:43:33;;;;;;;29.00;10.20;;;7.40;99.90;;;;;;5056780;28;20244;-79
2022/11/23 07:45:58;;;;;;;23.67;9.18;;;7.40;99.90;;;;;;5056444;28;20841;-79
2022/11/23 07:48:24;;;;;;;29.23;9.20;;;7.40;99.90;;;;;;5070877;28;20755;-79
2022/11/23 07:50:54;;;;;;;21.80;10.45;;;7.40;99.90;;;;;;5036736;28;20061;-79
2022/11/23 07:53:19;;;;;;;30.45;10.75;;;7.50;99.90;;;;;;5047840;28;20118;-79
2022/11/23 07:55:45;;;;;;;23.25;9.13;;;7.50;99.90;;;;;;5016725;28;20057;-79
2022/11/23 07:58:11;;;;;;;23.67;8.88;;;7.50;99.90;;;;;;5048148;28;20048;-79
2022/11/23 08:00:37;;;;;;;27.60;9.40;;;7.50;99.90;;;;;;5030804;28;20148;-79
2022/11/23 08:03:03;;;;;;;19.33;9.00;;;7.50;99.90;;;;;;5038399;28;20141;-79
2022/11/23 08:05:34;;;;;;;23.13;8.65;;;7.50;99.90;;;;;;5043879;28;20052;-79
2022/11/23 08:08:03;;;;;;;26.15;9.48;;;7.50;99.90;;;;;;5057095;28;20087;-80
2022/11/23 08:10:30;;;;;;;28.38;9.05;;;7.50;99.90;;;;;;5048418;28;20081;-79
2022/11/23 08:13:00;;;;;;;24.67;9.38;;;7.60;99.90;;;;;;5047500;28;20119;-85
2022/11/23 08:15:27;;;;;;;26.65;9.32;;;7.60;99.90;;;;;;5037481;28;20148;-79
2022/11/23 08:17:57;;;;;;;24.75;9.07;;;7.60;99.90;;;;;;5049270;28;20045;-79
2022/11/23 08:20:23;;;;;;;26.08;8.75;;;7.60;99.90;;;;;;5036675;28;20120;-79
2022/11/23 08:22:49;;;;;;;23.85;8.60;;;7.60;99.90;;;;;;5048252;28;20089;-78
2022/11/23 08:25:15;;;;;;;24.60;9.35;;;7.60;99.90;;;;;;5038894;28;20454;-81
2022/11/23 08:27:41;;;;;;;24.33;9.73;;;7.70;99.90;;;;;;5052270;28;20592;-79
2022/11/23 08:30:07;;;;;;;25.98;8.57;;;7.70;99.90;;;;;;5063008;28;20057;-79
2022/11/23 08:32:33;;;;;;;23.33;8.45;;;7.70;99.90;;;;;;5051201;28;20059;-79
2022/11/23 08:34:58;;;;;;;30.83;9.18;;;7.70;99.90;;;;;;5068827;28;20557;-79
2022/11/23 08:37:24;;;;;;;28.42;9.05;;;7.70;99.90;;;;;;5032706;28;20040;-80
2022/11/23 08:39:50;;;;;;;26.60;8.30;;;7.80;99.90;;;;;;5053804;28;20487;-81
2022/11/23 08:42:15;;;;;;;25.38;9.10;;;7.80;99.90;;;;;;5047327;28;20133;-79
2022/11/23 08:44:41;;;;;;;26.30;8.95;;;7.90;99.90;;;;;;5038959;28;20099;-80
2022/11/23 08:47:07;;;;;;;24.67;8.38;;;7.90;99.90;;;;;;5018927;28;20045;-79
2022/11/23 08:49:32;;;;;;;19.50;8.27;;;8.00;99.90;;;;;;5050117;28;20053;-79
2022/11/23 08:51:59;;;;;;;23.23;9.57;;;8.00;99.90;;;;;;5051410;28;20041;-79
2022/11/23 08:54:24;;;;;;;21.67;9.98;;;8.10;99.90;;;;;;5037084;28;20057;-80
2022/11/23 08:56:51;;;;;;;20.42;8.00;;;8.10;99.90;;;;;;5061342;28;20061;-79
2022/11/23 08:59:17;;;;;;;21.88;8.15;;;8.20;99.90;;;;;;5048335;28;20045;-78
2022/11/23 09:01:43;;;;;;;17.50;7.75;;;8.20;99.90;;;;;;5050417;28;20045;-78
2022/11/23 09:04:09;;;;;;;19.77;7.55;;;8.20;99.90;;;;;;5052744;28;20041;-79
2022/11/23 09:06:35;;;;;;;25.08;8.43;;;8.30;99.90;;;;;;5039975;28;20044;-82
2022/11/23 09:09:02;;;;;;;21.42;8.32;;;8.30;99.90;;;;;;5052330;28;20049;-78
2022/11/23 09:11:27;;;;;;;21.35;8.63;;;8.40;99.90;;;;;;5038815;28;20045;-79
2022/11/23 09:13:53;;;;;;;21.33;8.00;;;8.30;99.90;;;;;;5043172;28;20045;-79
2022/11/23 09:16:19;;;;;;;22.23;7.65;;;8.40;99.90;;;;;;5023971;28;20048;-79
2022/11/23 09:18:45;;;;;;;17.98;7.13;;;8.50;99.90;;;;;;5048852;28;20110;-79
2022/11/23 09:21:11;;;;;;;26.67;6.95;;;8.50;99.90;;;;;;5052465;28;20052;-80
2022/11/23 09:23:37;;;;;;;18.67;7.45;;;8.50;99.90;;;;;;5027717;28;20049;-79
2022/11/23 09:26:04;;;;;;;17.30;6.80;;;8.50;99.90;;;;;;5046007;28;20053;-82
2022/11/23 09:28:29;;;;;;;18.13;7.28;;;8.50;99.90;;;;;;5068582;28;20066;-79
2022/11/23 09:30:56;;;;;;;22.88;6.90;;;8.50;99.90;;;;;;5023358;28;20049;-80
2022/11/23 09:33:23;;;;;;;17.60;6.70;;;8.40;99.90;;;;;;5050378;28;20056;-80
2022/11/23 09:36:03;;;;;;;23.58;6.82;;;8.40;99.90;;;;;;5056119;28;20048;-79
2022/11/23 09:38:29;;;;;;;18.33;6.60;;;8.50;99.90;;;;;;5051711;28;20037;-78
2022/11/23 09:41:29;;;;;;;20.33;6.55;;;8.60;99.90;;;;;;5056341;28;20060;-78
2022/11/23 09:44:10;;;;;;;16.27;6.35;;;8.60;99.90;;;;;;5049112;28;20048;-81
2022/11/23 09:46:45;;;;;;;17.73;6.72;;;8.60;99.90;;;;;;5062131;28;20802;-78
2022/11/23 09:49:15;;;;;;;13.00;6.22;;;8.60;99.90;;;;;;5067508;28;20041;-79
2022/11/23 09:51:43;;;;;;;19.08;6.22;;;8.60;99.90;;;;;;5047971;28;20041;-78
2022/11/23 09:54:28;;;;;;;23.75;6.70;;;8.60;99.90;;;;;;5051698;28;20132;-78
2022/11/23 09:56:56;;;;;;;23.35;6.70;;;8.60;99.90;;;;;;5054239;28;20724;-78
2022/11/23 09:59:43;;;;;;;17.08;5.78;;;8.60;99.90;;;;;;5050712;28;20124;-78
2022/11/23 10:02:21;;;;;;;22.08;6.72;;;8.60;99.90;;;;;;5033840;28;20132;-79
2022/11/23 10:04:49;;;;;;;15.80;5.90;;;8.50;99.90;;;;;;5037184;28;20068;-80
2022/11/23 10:07:23;;;;;;;22.77;6.32;;;8.50;99.90;;;;;;5059413;28;20041;-80
2022/11/23 10:10:07;;;;;;;18.10;5.55;;;8.60;99.90;;;;;;5049888;28;20041;-79
2022/11/23 10:12:51;;;;;;;25.08;6.28;;;8.60;99.90;;;;;;5046949;28;20053;-78
2022/11/23 10:15:27;;;;;;;21.52;5.75;;;8.50;99.90;;;;;;5047547;28;20078;-79
2022/11/23 10:18:19;;;;;;;19.13;5.00;;;8.60;99.90;;;;;;5047084;28;20045;-78
2022/11/23 10:21:02;;;;;;;20.33;5.03;;;8.60;99.90;;;;;;5043107;28;20059;-78
2022/11/23 10:23:53;;;;;;;20.77;5.28;;;8.60;99.90;;;;;;5051952;28;20045;-79
2022/11/23 10:26:25;;;;;;;17.40;5.15;;;8.50;99.90;;;;;;5065244;28;20120;-78
2022/11/23 10:28:52;;;;;;;17.73;4.70;;;8.50;99.90;;;;;;5050305;28;20665;-78
2022/11/23 10:31:21;;;;;;;17.25;4.60;;;8.50;99.90;;;;;;5059187;28;20060;-79
2022/11/23 10:34:00;;;;;;;15.20;4.53;;;8.50;99.90;;;;;;5049290;28;20052;-80
2022/11/23 10:36:26;;;;;;;17.23;4.63;;;8.50;99.90;;;;;;5030924;28;20049;-79
2022/11/23 10:38:57;;;;;;;16.67;4.00;;;8.50;99.90;;;;;;5057060;28;20052;-79
2022/11/23 10:41:23;;;;;;;18.92;4.20;;;8.50;99.90;;;;;;5036558;28;20052;-79
2022/11/23 10:44:15;;;;;;;23.50;4.28;;;8.50;99.90;;;;;;5068809;28;20052;-80
2022/11/23 10:46:40;;;;;;;15.98;4.68;;;8.50;99.90;;;;;;5054094;28;20052;-79
2022/11/23 10:49:19;;;;;;;15.57;4.45;;;8.50;99.90;;;;;;5050230;28;20444;-79
2022/11/23 10:51:53;;;;;;;17.30;4.43;;;8.50;99.90;;;;;;5043535;28;20135;-79
2022/11/23 10:54:26;;;;;;;10.60;3.50;;;8.50;99.90;;;;;;5052809;28;20515;-79
2022/11/23 10:56:53;;;;;;;16.77;4.22;;;8.50;99.90;;;;;;5047895;28;20679;-78
2022/11/23 10:59:32;;;;;;;22.13;4.30;;;8.50;99.90;;;;;;5031179;28;20052;-78
2022/11/23 11:02:20;;;;;;;17.23;4.25;;;8.50;99.90;;;;;;5026400;28;20049;-79
2022/11/23 11:04:49;;;;;;;17.80;3.83;;;8.60;99.90;;;;;;5032873;28;20393;-80
2022/11/23 11:07:18;;;;;;;20.77;3.72;;;8.70;99.90;;;;;;5047908;28;20037;-79
2022/11/23 11:09:51;;;;;;;15.82;3.63;;;8.80;99.90;;;;;;5044882;28;20052;-78
2022/11/23 11:12:17;;;;;;;20.23;3.63;;;8.90;99.90;;;;;;5043346;28;20574;-78
2022/11/23 11:15:02;;;;;;;17.17;3.58;;;8.90;99.90;;;;;;5031692;28;20056;-77
2022/11/23 11:17:31;;;;;;;19.13;3.70;;;8.90;99.90;;;;;;5051077;28;20052;-77
2022/11/23 11:19:58;;;;;;;14.27;3.53;;;9.00;99.90;;;;;;5036332;28;20052;-77
2022/11/23 11:22:35;;;;;;;22.05;3.90;;;9.00;99.90;;;;;;5066338;28;20052;-76
2022/11/23 11:25:05;;;;;;;13.90;3.05;;;9.10;99.90;;;;;;5037529;28;20067;-76
2022/11/23 11:27:31;;;;;;;13.88;3.15;;;9.30;99.90;;;;;;5038740;28;20108;-77
2022/11/23 11:30:21;;;;;;;17.58;3.72;;;9.40;99.90;;;;;;5054044;28;20222;-77
2022/11/23 11:33:16;;;;;;;18.67;3.47;;;9.30;99.90;;;;;;5048430;28;20068;-77
2022/11/23 11:35:50;;;;;;;20.25;4.05;;;9.20;99.90;;;;;;5045233;28;20056;-80
2022/11/23 11:38:32;;;;;;;13.10;2.75;;;9.10;99.90;;;;;;5051850;28;20548;-79
2022/11/23 11:41:01;;;;;;;17.58;4.03;;;9.00;99.90;;;;;;5043666;28;20144;-80
2022/11/23 11:43:38;;;;;;;14.85;3.60;;;8.90;99.90;;;;;;5046798;28;20079;-81
2022/11/23 11:46:22;;;;;;;17.23;3.63;;;8.80;99.90;;;;;;5035773;28;20049;-79
2022/11/23 11:48:52;;;;;;;13.88;2.95;;;8.70;99.90;;;;;;5042337;28;20056;-81
2022/11/23 11:51:42;;;;;;;15.25;3.00;;;8.60;99.90;;;;;;5055244;28;20041;-81
2022/11/23 11:54:24;;;;;;;14.63;3.30;;;8.50;99.90;;;;;;5045977;28;20147;-80
2022/11/23 11:56:54;;;;;;;11.15;2.55;;;8.50;99.90;;;;;;5047959;28;20079;-82
2022/11/23 11:59:43;;;;;;;16.05;2.90;;;8.50;99.90;;;;;;5060303;28;20077;-82
2022/11/23 12:02:25;;;;;;;14.90;3.28;;;8.40;99.90;;;;;;5043380;28;20502;-81
2022/11/23 12:05:28;;;;;;;15.65;3.05;;;8.40;99.90;;;;;;5055497;28;20128;-79
2022/11/23 12:08:04;;;;;;;15.50;3.05;;;8.40;99.90;;;;;;5038882;28;20556;-78
2022/11/23 12:11:04;;;;;;;13.55;2.80;;;8.30;99.90;;;;;;5028810;28;20053;-80
2022/11/23 12:13:35;;;;;;;17.05;2.92;;;8.40;99.90;;;;;;5046178;28;20048;-80
2022/11/23 12:16:15;;;;;;;12.25;3.55;;;8.30;99.90;;;;;;5060782;28;20049;-80
2022/11/23 12:18:55;;;;;;;13.77;3.25;;;8.30;99.90;;;;;;5042884;28;20041;-80
2022/11/23 12:21:31;;;;;;;11.52;2.22;;;8.30;99.90;;;;;;5048125;28;20048;-80
2022/11/23 12:24:18;;;;;;;11.77;2.75;;;8.30;99.90;;;;;;5032114;28;20060;-79
2022/11/23 12:27:02;;;;;;;11.93;2.15;;;8.30;99.90;;;;;;5046304;28;20052;-80
2022/11/23 12:29:46;;;;;;;12.23;2.13;;;8.30;99.90;;;;;;5047477;28;20064;-80
2022/11/23 12:32:32;;;;;;;16.30;2.33;;;8.30;99.90;;;;;;5056956;28;20049;-80
2022/11/23 12:35:24;;;;;;;9.02;2.63;;;8.20;99.90;;;;;;5019594;28;20057;-80
2022/11/23 12:38:02;;;;;;;12.25;2.15;;;8.20;99.90;;;;;;5044396;28;20102;-82
2022/11/23 12:40:50;;;;;;;12.95;2.17;;;8.30;99.90;;;;;;5048031;28;20041;-81
2022/11/23 12:43:25;;;;;;;12.27;2.28;;;8.30;99.90;;;;;;5051108;28;20036;-81
2022/11/23 12:45:59;;;;;;;14.43;2.43;;;8.40;99.90;;;;;;5048400;28;20041;-80
2022/11/23 12:48:40;;;;;;;13.80;3.00;;;8.50;81.00;;;;;;5050522;28;20491;-81
2022/11/23 12:51:12;;;;;;;9.13;1.83;;;8.50;42.00;;;;;;5057987;28;20132;-83